Time;durP1;ratioP1;P1;durP2;ratioP2;P2;SDS_P1;SDS_P2;PMS_P1;PMS_P2;Temp;Humidity;BMP_temperature;BMP_pressure;BME280_temperature;BME280_humidity;BME280_pressure;Samples;Min_cycle;Max_cycle;Signal;HPM_P1;HPM_P2
2021/06/16 00:00:15;;;;;;;6.60;1.65;;;;;;;15.23;72.35;101909.81;5122891;27;20400;-57
2021/06/16 00:02:43;;;;;;;4.83;1.70;;;;;;;15.19;72.63;101900.31;5133915;27;20107;-54
2021/06/16 00:05:14;;;;;;;4.45;1.70;;;;;;;15.15;73.05;101908.56;5133418;27;20047;-57
2021/06/16 00:07:42;;;;;;;4.85;1.60;;;;;;;15.15;73.15;101899.28;5132903;27;20438;-52
2021/06/16 00:10:11;;;;;;;6.28;1.50;;;;;;;15.12;73.22;101897.91;5133449;27;20067;-51
2021/06/16 00:12:41;;;;;;;4.82;1.75;;;;;;;15.10;73.57;101890.94;5133600;27;20077;-49
2021/06/16 00:15:15;;;;;;;3.92;1.77;;;;;;;15.09;74.01;101886.44;5132689;27;20043;-53
2021/06/16 00:17:43;;;;;;;7.38;2.00;;;;;;;15.04;74.09;101884.53;5133147;27;20039;-55
2021/06/16 00:20:11;;;;;;;7.82;2.35;;;;;;;15.03;74.50;101885.69;5132504;27;20028;-56
2021/06/16 00:22:40;;;;;;;4.05;1.50;;;;;;;15.01;74.50;101881.50;5133116;27;20393;-57
2021/06/16 00:25:12;;;;;;;5.53;1.80;;;;;;;15.01;74.57;101876.72;5133015;27;20511;-51
2021/06/16 00:27:41;;;;;;;5.80;1.75;;;;;;;15.01;74.78;101878.69;5132702;27;20122;-50
2021/06/16 00:30:10;;;;;;;6.25;1.95;;;;;;;14.99;74.95;101873.34;5121303;27;20144;-52
2021/06/16 00:32:43;;;;;;;7.15;2.20;;;;;;;14.99;75.17;101873.34;5129385;27;20071;-53
2021/06/16 00:35:12;;;;;;;4.30;1.92;;;;;;;14.98;75.00;101868.91;5132860;27;20051;-54
2021/06/16 00:37:40;;;;;;;7.30;2.42;;;;;;;14.97;75.05;101864.44;5132790;27;20043;-57
2021/06/16 00:40:12;;;;;;;7.57;2.42;;;;;;;14.98;75.40;101862.44;5133001;27;20737;-52
2021/06/16 00:42:42;;;;;;;9.65;2.33;;;;;;;14.96;75.46;101865.56;5132257;27;20047;-51
2021/06/16 00:45:11;;;;;;;6.47;1.95;;;;;;;14.96;75.53;101864.72;5132667;27;20097;-48
2021/06/16 00:47:40;;;;;;;4.82;1.40;;;;;;;14.96;75.65;101859.94;5132740;27;20078;-53
2021/06/16 00:50:09;;;;;;;4.05;1.58;;;;;;;14.97;75.50;101863.59;5129046;27;20091;-54
2021/06/16 00:52:38;;;;;;;4.80;1.63;;;;;;;14.96;75.46;101864.72;5116193;27;20501;-51
2021/06/16 00:55:07;;;;;;;4.28;1.35;;;;;;;14.95;75.43;101863.06;5132271;27;20506;-52
2021/06/16 00:57:35;;;;;;;6.35;1.80;;;;;;;14.93;75.53;101860.53;5132254;27;20122;-49
2021/06/16 01:00:09;;;;;;;5.22;1.92;;;;;;;14.92;75.87;101852.41;5132695;27;20117;-52
2021/06/16 01:02:46;;;;;;;5.95;1.95;;;;;;;14.90;76.16;101857.50;5132115;27;20100;-54
2021/06/16 01:05:15;;;;;;;5.10;1.73;;;;;;;14.89;76.09;101853.03;5131429;27;20082;-50
2021/06/16 01:07:44;;;;;;;6.70;2.00;;;;;;;14.88;76.36;101856.97;5132468;27;20095;-52
2021/06/16 01:10:15;;;;;;;3.85;1.50;;;;;;;14.86;76.14;101853.63;5131558;27;20118;-56
2021/06/16 01:12:48;;;;;;;4.63;1.85;;;;;;;14.81;76.23;101855.38;5132929;27;20035;-53
2021/06/16 01:15:22;;;;;;;4.32;1.67;;;;;;;14.78;76.68;101855.16;5132449;27;20103;-52
2021/06/16 01:17:53;;;;;;;4.03;1.50;;;;;;;14.77;76.64;101848.72;5122181;27;20039;-52
2021/06/16 01:20:34;;;;;;;6.03;1.90;;;;;;;14.78;76.63;101846.72;5132172;27;20074;-51
2021/06/16 01:23:49;;;;;;;4.30;1.60;;;;;;;14.77;76.67;101839.44;5123130;27;20054;-55
2021/06/16 01:26:24;;;;;;;4.15;1.60;;;;;;;14.70;76.83;101844.59;5121737;27;20120;-57
2021/06/16 01:28:55;;;;;;;6.68;2.40;;;;;;;14.70;77.00;101834.19;5131621;27;20047;-52
2021/06/16 01:31:26;;;;;;;8.30;2.70;;;;;;;14.70;77.00;101837.00;5130970;27;20066;-58
2021/06/16 01:33:54;;;;;;;5.63;1.85;;;;;;;14.70;77.40;101833.34;5132230;27;20406;-56
2021/06/16 01:36:25;;;;;;;4.18;1.77;;;;;;;14.69;77.44;101835.31;5114780;28;20043;-53
2021/06/16 01:38:55;;;;;;;3.13;1.50;;;;;;;14.67;77.14;101833.94;5131390;27;20433;-57
2021/06/16 01:41:25;;;;;;;4.30;1.80;;;;;;;14.65;77.35;101836.22;5131600;28;20047;-53
2021/06/16 01:43:55;;;;;;;5.47;1.95;;;;;;;14.61;77.31;101826.72;5131901;28;20114;-54
2021/06/16 01:46:25;;;;;;;5.72;2.10;;;;;;;14.58;77.32;101828.19;5131491;27;20063;-56
2021/06/16 01:48:54;;;;;;;3.72;1.38;;;;;;;14.54;77.51;101826.28;5131940;28;20059;-54
2021/06/16 01:51:26;;;;;;;4.93;1.65;;;;;;;14.52;77.32;101820.97;5131727;27;20050;-54
2021/06/16 01:53:56;;;;;;;6.38;2.10;;;;;;;14.49;77.33;101827.19;5131597;27;20078;-52
2021/06/16 01:56:27;;;;;;;4.43;1.85;;;;;;;14.45;77.59;101826.13;5131912;28;20051;-47
2021/06/16 01:58:56;;;;;;;6.50;2.17;;;;;;;14.41;77.60;101827.84;5131205;28;20043;-54
2021/06/16 02:01:28;;;;;;;;;;;;;;;14.28;77.50;101817.31;5132432;27;20135;-52
2021/06/16 02:03:57;;;;;;;4.88;1.83;;;;;;;14.24;77.99;101824.69;5131736;28;19919;-51
2021/06/16 02:06:28;;;;;;;6.60;1.85;;;;;;;14.25;77.88;101820.75;5131063;27;20133;-55
2021/06/16 02:08:56;;;;;;;5.70;1.70;;;;;;;14.23;77.83;101817.38;5131852;27;20372;-54
2021/06/16 02:11:27;;;;;;;5.22;1.95;;;;;;;14.20;78.11;101818.81;5121289;27;20043;-54
2021/06/16 02:13:57;;;;;;;6.80;1.95;;;;;;;14.19;78.33;101808.72;5131304;27;20148;-54
2021/06/16 02:16:32;;;;;;;4.18;2.10;;;;;;;14.19;78.25;101816.34;5132283;27;20470;-55
2021/06/16 02:19:04;;;;;;;5.63;1.90;;;;;;;14.18;78.39;101807.09;5135578;27;20434;-52
2021/06/16 02:21:33;;;;;;;3.70;1.60;;;;;;;14.18;78.49;101807.09;5134628;27;20055;-53
2021/06/16 02:24:01;;;;;;;6.57;2.08;;;;;;;14.18;78.34;101809.91;5135680;27;20043;-51
2021/06/16 02:26:30;;;;;;;4.60;1.85;;;;;;;14.18;78.38;101807.09;5135183;27;20072;-50
2021/06/16 02:28:58;;;;;;;4.18;1.88;;;;;;;14.17;78.44;101801.78;5135022;27;20047;-55
2021/06/16 02:31:26;;;;;;;5.70;2.03;;;;;;;14.16;78.55;101803.75;5134953;27;20458;-49
2021/06/16 02:33:54;;;;;;;5.43;2.03;;;;;;;14.14;78.56;101809.66;5135126;27;20078;-48
2021/06/16 02:36:24;;;;;;;6.97;2.50;;;;;;;14.13;78.72;101807.97;5135338;27;20058;-50
2021/06/16 02:38:57;;;;;;;6.43;2.90;;;;;;;14.11;78.73;101793.41;5135330;27;20432;-49
2021/06/16 02:41:26;;;;;;;5.78;2.17;;;;;;;14.08;78.79;101791.19;5134483;27;20100;-51
2021/06/16 02:43:56;;;;;;;5.13;2.38;;;;;;;14.09;78.95;101790.06;5131408;27;20131;-52
2021/06/16 02:46:25;;;;;;;10.43;3.20;;;;;;;14.11;79.18;101781.34;5135249;27;20106;-49
2021/06/16 02:48:54;;;;;;;7.38;3.22;;;;;;;14.12;79.49;101775.44;5134374;27;20035;-55
2021/06/16 02:51:22;;;;;;;5.30;2.35;;;;;;;14.13;79.69;101779.91;5135009;27;20040;-52
2021/06/16 02:53:51;;;;;;;6.65;2.72;;;;;;;14.15;79.77;101771.19;5120507;27;20079;-49
2021/06/16 02:56:21;;;;;;;6.72;2.65;;;;;;;14.16;80.31;101777.63;5133920;27;20068;-51
2021/06/16 02:58:51;;;;;;;8.32;3.00;;;;;;;14.17;80.39;101773.69;5134723;27;20047;-51
2021/06/16 03:01:23;;;;;;;9.45;3.10;;;;;;;14.17;80.71;101766.13;5134737;27;20043;-52
2021/06/16 03:03:53;;;;;;;8.48;3.80;;;;;;;14.18;80.66;101762.16;5134081;27;20047;-50
2021/06/16 03:06:24;;;;;;;9.43;2.70;;;;;;;14.17;81.09;101756.84;5134709;27;20100;-51
2021/06/16 03:08:55;;;;;;;4.90;2.17;;;;;;;14.18;81.02;101759.38;5133605;27;20134;-51
2021/06/16 03:11:24;;;;;;;5.95;2.75;;;;;;;14.19;81.04;101758.19;5134208;27;20043;-50
2021/06/16 03:13:53;;;;;;;6.53;2.30;;;;;;;14.18;81.13;101747.31;5133969;27;20046;-53
2021/06/16 03:16:23;;;;;;;4.60;1.83;;;;;;;14.19;81.14;101752.59;5133409;27;20099;-51
2021/06/16 03:18:51;;;;;;;8.85;2.83;;;;;;;14.19;81.13;101755.38;5133889;27;20055;-53
2021/06/16 03:21:20;;;;;;;5.38;2.65;;;;;;;14.18;80.98;101758.53;5134019;27;20055;-51
2021/06/16 03:23:50;;;;;;;7.53;2.25;;;;;;;14.14;81.02;101758.28;5123386;27;20036;-50
2021/06/16 03:26:19;;;;;;;7.32;2.75;;;;;;;14.09;81.01;101750.75;5134714;27;20062;-51
2021/06/16 03:28:48;;;;;;;6.43;2.40;;;;;;;14.06;80.82;101747.72;5133195;27;20043;-50
2021/06/16 03:31:18;;;;;;;4.97;2.17;;;;;;;14.02;81.03;101746.66;5133899;27;20499;-51
2021/06/16 03:33:49;;;;;;;6.35;2.40;;;;;;;14.00;81.10;101749.75;5134190;27;20043;-50
2021/06/16 03:36:19;;;;;;;5.10;2.90;;;;;;;13.96;81.08;101748.72;5134250;27;20039;-52
2021/06/16 03:38:47;;;;;;;3.45;1.63;;;;;;;13.94;81.00;101748.16;5133780;27;20043;-52
2021/06/16 03:41:16;;;;;;;5.25;2.03;;;;;;;13.93;80.90;101742.84;5134256;27;20545;-51
2021/06/16 03:43:47;;;;;;;4.88;2.50;;;;;;;13.93;80.96;101746.50;5133847;27;20457;-48
2021/06/16 03:46:16;;;;;;;4.57;2.10;;;;;;;13.92;81.04;101739.22;5133625;27;20036;-50
2021/06/16 03:48:47;;;;;;;4.40;1.95;;;;;;;13.95;81.06;101734.97;5133950;27;20035;-51
2021/06/16 03:51:17;;;;;;;4.35;2.05;;;;;;;13.96;81.01;101733.84;5133575;27;20035;-52
2021/06/16 03:53:45;;;;;;;5.55;2.08;;;;;;;13.96;80.93;101734.69;5133649;27;20509;-49
2021/06/16 03:56:14;;;;;;;8.50;3.50;;;;;;;14.01;81.53;101737.38;5133824;27;20035;-52
2021/06/16 03:58:42;;;;;;;8.18;4.07;;;;;;;14.04;81.62;101731.19;5132999;27;20100;-52
2021/06/16 04:01:13;;;;;;;10.43;3.25;;;;;;;14.05;81.87;101721.63;5133350;27;20096;-49
2021/06/16 04:03:42;;;;;;;10.85;3.42;;;;;;;14.10;82.06;101724.38;5133722;27;20055;-52
2021/06/16 04:06:13;;;;;;;7.78;3.72;;;;;;;14.13;82.01;101720.97;5132565;27;20527;-50
2021/06/16 04:08:44;;;;;;;6.83;3.10;;;;;;;14.15;81.85;101726.28;5133605;27;20059;-50
2021/06/16 04:11:13;;;;;;;5.05;2.40;;;;;;;14.16;82.35;101724.31;5133412;27;20150;-50
2021/06/16 04:13:41;;;;;;;6.15;3.17;;;;;;;14.20;82.33;101722.53;5132733;27;20556;-53
2021/06/16 04:16:10;;;;;;;7.78;3.30;;;;;;;14.24;82.56;101724.44;5133320;27;20043;-51
2021/06/16 04:18:40;;;;;;;6.43;2.92;;;;;;;14.27;82.72;101721.03;5133452;27;20054;-48
2021/06/16 04:21:11;;;;;;;8.05;2.60;;;;;;;14.30;82.31;101714.00;5132553;27;20416;-50
2021/06/16 04:23:39;;;;;;;9.23;3.70;;;;;;;14.35;82.55;101716.72;5133176;27;20106;-51
2021/06/16 04:26:07;;;;;;;7.22;3.42;;;;;;;14.39;82.58;101714.94;5133693;27;20131;-51
2021/06/16 04:28:35;;;;;;;9.75;3.38;;;;;;;14.45;82.77;101725.00;5133225;27;20112;-51
2021/06/16 04:31:03;;;;;;;9.63;4.32;;;;;;;14.50;82.77;101719.31;5122707;27;20544;-52
2021/06/16 04:33:32;;;;;;;8.25;2.92;;;;;;;14.58;83.04;101720.63;5132558;27;20047;-49
2021/06/16 04:36:01;;;;;;;7.35;3.10;;;;;;;14.67;83.22;101722.41;5132938;27;20055;-51
2021/06/16 04:38:31;;;;;;;8.00;3.75;;;;;;;14.79;83.15;101727.53;5132968;27;20051;-51
2021/06/16 04:40:59;;;;;;;9.50;3.90;;;;;;;14.90;83.24;101728.22;5128919;27;20122;-51
2021/06/16 04:43:26;;;;;;;9.77;4.25;;;;;;;15.01;83.17;101718.47;5133159;27;20074;-51
2021/06/16 04:45:54;;;;;;;8.80;3.72;;;;;;;15.11;83.03;101712.66;5132689;27;20065;-52
2021/06/16 04:48:22;;;;;;;9.13;3.20;;;;;;;15.20;82.80;101707.16;5132077;27;20393;-51
2021/06/16 04:50:50;;;;;;;9.60;4.03;;;;;;;15.28;82.77;101712.91;5132202;27;20074;-55
2021/06/16 04:53:18;;;;;;;7.30;3.47;;;;;;;15.36;82.70;101717.81;5113849;27;20481;-56
2021/06/16 04:55:50;;;;;;;6.45;3.45;;;;;;;15.44;82.49;101711.47;5112165;28;20054;-50
2021/06/16 04:58:17;;;;;;;9.40;3.00;;;;;;;15.50;82.51;101706.56;5132422;27;20085;-55
2021/06/16 05:00:45;;;;;;;5.95;3.28;;;;;;;15.60;82.52;101714.81;5132465;27;20051;-50
2021/06/16 05:03:13;;;;;;;6.78;3.03;;;;;;;15.68;82.24;101708.50;5131980;27;20047;-54
2021/06/16 05:05:41;;;;;;;8.90;3.88;;;;;;;15.76;82.24;101698.50;5132388;27;20055;-55
2021/06/16 05:08:09;;;;;;;12.10;4.25;;;;;;;15.83;82.18;101702.53;5132616;27;20402;-52
2021/06/16 05:10:37;;;;;;;7.00;3.75;;;;;;;15.93;81.98;101704.31;5131825;27;20070;-51
2021/06/16 05:13:06;;;;;;;6.15;3.35;;;;;;;16.02;81.79;101691.13;5132337;27;20099;-55
2021/06/16 05:15:34;;;;;;;9.98;3.92;;;;;;;16.11;81.83;101694.06;5131961;27;20123;-57
2021/06/16 05:18:04;;;;;;;5.50;3.38;;;;;;;16.20;81.68;101687.34;5132179;27;20492;-54
2021/06/16 05:20:32;;;;;;;9.07;3.83;;;;;;;16.28;81.70;101693.38;5132139;27;20043;-52
2021/06/16 05:23:02;;;;;;;7.60;3.10;;;;;;;16.35;81.16;101699.41;5131787;27;20487;-56
2021/06/16 05:25:30;;;;;;;7.18;3.55;;;;;;;16.43;81.04;101690.19;5132236;27;20077;-54
2021/06/16 05:27:58;;;;;;;9.27;3.90;;;;;;;16.49;80.82;101680.47;5132210;27;20059;-52
2021/06/16 05:30:27;;;;;;;10.00;3.35;;;;;;;16.58;80.61;101686.19;5131228;27;20067;-56
2021/06/16 05:32:55;;;;;;;6.95;3.70;;;;;;;16.64;80.57;101680.13;5132207;27;20046;-55
2021/06/16 05:35:23;;;;;;;8.43;3.88;;;;;;;16.72;80.29;101681.34;5131983;27;20071;-54
2021/06/16 05:37:51;;;;;;;9.65;4.03;;;;;;;16.80;80.09;101681.38;5131544;27;20118;-53
2021/06/16 05:40:21;;;;;;;7.22;3.70;;;;;;;16.92;80.15;101683.63;5132097;27;20046;-52
2021/06/16 05:42:48;;;;;;;7.15;3.60;;;;;;;17.05;79.73;101684.69;5131854;28;20039;-53
2021/06/16 05:45:17;;;;;;;10.05;3.00;;;;;;;17.22;79.31;101673.50;5131750;27;20043;-51
2021/06/16 05:47:46;;;;;;;7.80;3.20;;;;;;;17.41;78.88;101682.56;5131881;28;20403;-50
2021/06/16 05:50:15;;;;;;;8.55;3.33;;;;;;;17.60;78.32;101675.81;5132068;27;20100;-49
2021/06/16 05:52:44;;;;;;;7.90;3.55;;;;;;;17.79;77.84;101677.25;5134475;27;20039;-51
2021/06/16 05:55:14;;;;;;;6.82;3.22;;;;;;;17.99;77.03;101675.78;5130636;27;20053;-53
2021/06/16 05:57:43;;;;;;;7.07;3.10;;;;;;;18.17;76.04;101671.84;5130470;27;20047;-52
2021/06/16 06:00:11;;;;;;;8.93;3.20;;;;;;;18.34;75.17;101676.69;5135896;27;20108;-56
2021/06/16 06:02:44;;;;;;;8.52;3.15;;;;;;;18.51;74.37;101664.53;5136258;27;20047;-57
2021/06/16 06:05:13;;;;;;;6.43;3.20;;;;;;;18.72;74.00;101659.06;5117875;27;20108;-51
2021/06/16 06:07:41;;;;;;;7.90;3.05;;;;;;;18.91;73.13;101660.34;5135822;27;20039;-54
2021/06/16 06:10:10;;;;;;;6.03;2.50;;;;;;;19.13;72.68;101667.78;5135147;27;20659;-51
2021/06/16 06:12:45;;;;;;;7.85;2.63;;;;;;;19.35;72.11;101663.88;5132997;27;20047;-51
2021/06/16 06:15:16;;;;;;;9.02;2.95;;;;;;;19.50;71.04;101669.00;5136207;27;20508;-51
2021/06/16 06:17:44;;;;;;;9.88;3.00;;;;;;;19.58;70.67;101659.63;5135432;27;20104;-52
2021/06/16 06:20:15;;;;;;;9.95;2.78;;;;;;;19.65;69.85;101658.25;5134870;27;20047;-52
2021/06/16 06:22:43;;;;;;;7.07;2.88;;;;;;;19.69;69.13;101660.09;5135552;27;20063;-54
2021/06/16 06:25:11;;;;;;;7.07;2.38;;;;;;;19.79;68.77;101650.34;5135651;27;20039;-52
2021/06/16 06:27:39;;;;;;;7.50;3.10;;;;;;;19.88;68.08;101646.31;5134611;27;20043;-52
2021/06/16 06:30:09;;;;;;;8.98;2.97;;;;;;;20.04;67.19;101642.84;5135387;27;20047;-53
2021/06/16 06:32:37;;;;;;;10.40;2.72;;;;;;;20.19;67.14;101643.06;5135286;27;20502;-53
2021/06/16 06:35:06;;;;;;;8.80;3.30;;;;;;;20.32;66.23;101638.31;5134144;27;20070;-53
2021/06/16 06:37:36;;;;;;;8.45;2.80;;;;;;;20.41;65.76;101639.09;5135301;27;20526;-54
2021/06/16 06:40:05;;;;;;;6.78;2.85;;;;;;;20.49;65.63;101634.53;5134165;27;20084;-51
2021/06/16 06:42:33;;;;;;;7.28;3.35;;;;;;;20.62;65.70;101627.72;5134898;27;20073;-57
2021/06/16 06:45:01;;;;;;;6.95;2.47;;;;;;;20.81;65.79;101635.69;5117372;27;20047;-53
2021/06/16 06:47:33;;;;;;;7.22;2.50;;;;;;;21.00;64.17;101635.97;5123078;27;20051;-56
2021/06/16 06:50:02;;;;;;;5.60;2.42;;;;;;;21.12;64.00;101633.19;5134957;27;20057;-56
2021/06/16 06:52:30;;;;;;;6.43;2.40;;;;;;;21.34;63.14;101631.94;5133876;27;20104;-53
2021/06/16 06:54:59;;;;;;;8.52;3.10;;;;;;;;;;5134214;27;20491;-55
2021/06/16 06:57:27;;;;;;;7.63;2.53;;;;;;;21.45;62.00;101627.44;5134794;27;20077;-54
2021/06/16 06:59:55;;;;;;;12.05;2.78;;;;;;;21.59;61.81;101629.91;5133926;27;20502;-60
2021/06/16 07:02:25;;;;;;;6.18;2.45;;;;;;;21.63;61.32;101631.69;5128997;27;20088;-56
2021/06/16 07:04:52;;;;;;;8.45;2.28;;;;;;;21.75;61.18;101624.38;5134680;27;20039;-54
2021/06/16 07:07:20;;;;;;;8.73;2.60;;;;;;;21.88;60.62;101618.31;5134621;27;20051;-52
2021/06/16 07:09:48;;;;;;;6.32;2.53;;;;;;;21.99;60.40;101613.78;5134414;27;20043;-57
2021/06/16 07:12:18;;;;;;;8.18;2.38;;;;;;;22.11;60.03;101615.81;5134039;27;20071;-48
2021/06/16 07:14:46;;;;;;;9.15;2.78;;;;;;;22.22;59.37;101614.09;5134068;27;20039;-56
2021/06/16 07:17:14;;;;;;;7.53;2.20;;;;;;;22.29;58.95;101605.78;5133969;27;20437;-54
2021/06/16 07:19:42;;;;;;;5.60;2.35;;;;;;;22.48;58.90;101605.13;5134228;27;20067;-51
2021/06/16 07:22:10;;;;;;;6.28;2.30;;;;;;;22.70;58.58;101606.56;5133284;27;20125;-51
2021/06/16 07:24:38;;;;;;;8.48;2.60;;;;;;;22.83;57.88;101605.31;5134276;27;20127;-50
2021/06/16 07:27:06;;;;;;;8.00;2.25;;;;;;;22.90;57.20;101599.84;5133206;27;20453;-53
2021/06/16 07:29:36;;;;;;;5.93;2.35;;;;;;;23.00;56.69;101602.13;5133585;27;20047;-58
2021/06/16 07:32:04;;;;;;;5.88;2.10;;;;;;;23.05;55.98;101594.53;5133956;27;20100;-53
2021/06/16 07:34:32;;;;;;;10.13;2.25;;;;;;;23.16;55.99;101598.50;5134143;27;20056;-56
2021/06/16 07:37:00;;;;;;;7.32;2.28;;;;;;;23.22;55.81;101602.69;5133327;27;20051;-53
2021/06/16 07:39:28;;;;;;;9.50;2.30;;;;;;;23.30;55.35;101604.56;5133986;27;20051;-51
2021/06/16 07:41:56;;;;;;;6.85;2.03;;;;;;;23.27;55.06;101597.56;5133272;27;20051;-56
2021/06/16 07:44:25;;;;;;;7.00;2.17;;;;;;;23.48;55.10;101596.44;5133648;27;20043;-53
2021/06/16 07:46:55;;;;;;;5.85;2.08;;;;;;;23.64;54.20;101597.28;5133323;27;20043;-53
2021/06/16 07:49:25;;;;;;;9.52;2.97;;;;;;;23.65;53.16;101594.06;5133797;27;20073;-56
2021/06/16 07:51:53;;;;;;;6.97;2.40;;;;;;;23.68;53.18;101596.19;5132905;27;20043;-56
2021/06/16 07:54:21;;;;;;;7.63;2.40;;;;;;;23.79;52.76;101589.88;5133476;27;20043;-55
2021/06/16 07:56:49;;;;;;;7.07;2.00;;;;;;;23.95;52.13;101582.97;5133193;27;20051;-52
2021/06/16 07:59:17;;;;;;;6.07;2.03;;;;;;;24.11;51.01;101584.94;5132429;27;20047;-55
2021/06/16 08:01:45;;;;;;;7.97;2.20;;;;;;;24.20;50.10;101576.97;5133458;27;20052;-56
2021/06/16 08:04:19;;;;;;;7.05;2.15;;;;;;;24.33;48.88;101579.34;5132646;27;20072;-57
2021/06/16 08:06:47;;;;;;;6.15;1.85;;;;;;;24.40;48.09;101581.50;5133392;27;20039;-57
2021/06/16 08:09:18;;;;;;;8.68;2.00;;;;;;;24.37;47.76;101571.69;5133437;27;20122;-57
2021/06/16 08:11:46;;;;;;;6.70;2.00;;;;;;;24.34;47.86;101565.91;5132630;27;20071;-59
2021/06/16 08:14:13;;;;;;;8.00;2.20;;;;;;;24.49;47.32;101564.16;5132783;27;20112;-53
2021/06/16 08:16:41;;;;;;;4.95;1.80;;;;;;;24.64;47.31;101574.63;5133193;27;20068;-55
2021/06/16 08:19:09;;;;;;;7.78;2.30;;;;;;;24.72;46.86;101567.88;5132642;27;20396;-53
2021/06/16 08:21:39;;;;;;;4.82;1.83;;;;;;;24.90;47.28;101573.91;5132918;27;20053;-50
2021/06/16 08:24:07;;;;;;;4.93;1.80;;;;;;;25.09;45.87;101573.88;5133283;27;20576;-56
2021/06/16 08:26:36;;;;;;;4.78;2.03;;;;;;;25.10;46.15;101569.84;5132461;27;20038;-55
2021/06/16 08:29:04;;;;;;;9.10;2.05;;;;;;;25.12;45.29;101564.56;5125320;27;20052;-57
2021/06/16 08:31:32;;;;;;;4.22;1.75;;;;;;;25.22;45.19;101561.06;5126969;27;20498;-57
2021/06/16 08:34:00;;;;;;;4.75;2.00;;;;;;;25.27;44.00;101549.31;5132276;27;20043;-60
2021/06/16 08:36:28;;;;;;;6.50;2.05;;;;;;;25.30;43.54;101544.88;5133016;27;20039;-58
2021/06/16 08:39:09;;;;;;;6.32;2.35;;;;;;;25.30;42.41;101542.84;5132965;27;20100;-55
2021/06/16 08:41:38;;;;;;;4.55;1.88;;;;;;;25.37;43.77;101548.69;5131828;27;20558;-54
2021/06/16 08:44:07;;;;;;;5.00;1.90;;;;;;;25.53;43.21;101553.41;5132182;27;20047;-55
2021/06/16 08:46:36;;;;;;;5.13;1.98;;;;;;;25.69;44.23;101552.03;5132143;27;20043;-58
2021/06/16 08:49:05;;;;;;;4.30;1.73;;;;;;;25.92;44.15;101548.28;5115088;27;20103;-58
2021/06/16 08:51:34;;;;;;;4.63;1.80;;;;;;;26.13;43.92;101542.03;5129879;27;20113;-55
2021/06/16 08:54:02;;;;;;;5.88;1.92;;;;;;;26.21;43.91;101546.59;5131554;27;20067;-56
2021/06/16 08:56:31;;;;;;;5.00;1.98;;;;;;;26.31;43.26;101554.53;5132415;27;20095;-56
2021/06/16 08:58:59;;;;;;;4.95;1.90;;;;;;;26.36;43.46;101546.44;5132253;27;20088;-57
2021/06/16 09:01:28;;;;;;;4.50;1.98;;;;;;;26.55;42.62;101541.75;5114811;27;20095;-55
2021/06/16 09:03:56;;;;;;;6.97;2.10;;;;;;;26.64;43.29;101547.97;5132037;27;20449;-50
2021/06/16 09:06:29;;;;;;;5.07;1.83;;;;;;;26.63;42.54;101540.59;5131631;27;20142;-59
2021/06/16 09:09:00;;;;;;;6.55;2.40;;;;;;;26.69;41.81;101545.59;5131370;27;20096;-55
2021/06/16 09:11:31;;;;;;;4.65;1.90;;;;;;;26.81;41.39;101547.31;5131888;27;20152;-59
2021/06/16 09:14:13;;;;;;;5.78;2.22;;;;;;;26.86;40.17;101552.69;5132286;27;20068;-53
2021/06/16 09:16:42;;;;;;;5.28;1.85;;;;;;;26.92;41.06;101551.13;5131664;27;20163;-52
2021/06/16 09:19:21;;;;;;;4.53;1.85;;;;;;;27.02;40.40;101546.75;5131939;27;20068;-55
2021/06/16 09:21:57;;;;;;;5.43;2.20;;;;;;;26.99;40.62;101551.22;5130909;27;20532;-56
2021/06/16 09:24:24;;;;;;;4.32;2.00;;;;;;;26.95;41.33;101546.69;5132478;27;20074;-56
2021/06/16 09:26:55;;;;;;;6.80;2.05;;;;;;;27.08;41.04;101548.84;5131000;27;20047;-52
2021/06/16 09:29:29;;;;;;;6.95;2.20;;;;;;;27.21;40.06;101542.81;5131632;27;20062;-50
2021/06/16 09:32:03;;;;;;;4.35;2.13;;;;;;;27.32;40.19;101546.59;5131781;27;20059;-57
2021/06/16 09:34:32;;;;;;;7.05;2.33;;;;;;;27.42;40.94;101535.22;5131982;27;20055;-56
2021/06/16 09:37:06;;;;;;;6.80;2.40;;;;;;;27.50;40.17;101541.81;5131217;27;20088;-57
2021/06/16 09:39:34;;;;;;;6.05;2.55;;;;;;;27.49;40.00;101533.63;5122618;27;20047;-56
2021/06/16 09:42:11;;;;;;;3.90;2.20;;;;;;;27.52;40.76;101529.97;5131840;27;20426;-54
2021/06/16 09:44:45;;;;;;;6.65;2.22;;;;;;;27.35;40.72;101532.31;5121280;28;20150;-56
2021/06/16 09:47:15;;;;;;;7.30;2.60;;;;;;;27.25;40.36;101520.75;5131961;27;20441;-54
2021/06/16 09:49:50;;;;;;;6.88;2.90;;;;;;;27.29;39.98;101518.72;5131201;28;20125;-59
2021/06/16 09:52:30;;;;;;;9.13;2.95;;;;;;;27.27;39.65;101515.44;5131556;27;20051;-56
2021/06/16 09:54:58;;;;;;;6.45;2.47;;;;;;;27.30;40.62;101509.75;5131413;28;20458;-56
2021/06/16 09:57:28;;;;;;;4.07;2.40;;;;;;;27.39;40.02;101517.97;5131068;28;20062;-54
2021/06/16 10:00:02;;;;;;;6.57;2.45;;;;;;;27.37;39.97;101518.41;5131628;28;20043;-53
2021/06/16 10:02:40;;;;;;;6.33;2.10;;;;;;;27.49;40.53;101502.91;5131419;27;20367;-54
2021/06/16 10:05:12;;;;;;;4.85;2.05;;;;;;;27.61;40.00;101508.31;5130463;28;20088;-53
2021/06/16 10:07:40;;;;;;;5.90;2.53;;;;;;;27.75;39.71;101508.44;5131027;27;20139;-55
2021/06/16 10:10:11;;;;;;;4.63;1.92;;;;;;;27.82;39.57;101509.66;5130349;28;20047;-56
2021/06/16 10:12:41;;;;;;;3.80;2.38;;;;;;;27.86;40.00;101505.59;5130379;28;20047;-59
2021/06/16 10:15:11;;;;;;;5.25;1.95;;;;;;;27.94;40.16;101500.72;5130929;28;20065;-58
2021/06/16 10:17:40;;;;;;;5.93;2.45;;;;;;;28.15;40.13;101502.88;5131110;28;20039;-55
2021/06/16 10:20:10;;;;;;;5.00;2.63;;;;;;;28.23;39.50;101496.78;5130463;27;20112;-58
2021/06/16 10:22:38;;;;;;;4.00;2.30;;;;;;;28.33;39.28;101504.59;5130930;27;20100;-57
2021/06/16 10:25:10;;;;;;;5.20;2.28;;;;;;;28.52;38.86;101491.94;5131188;27;20054;-53
2021/06/16 10:27:42;;;;;;;4.53;2.30;;;;;;;28.68;38.26;101492.38;5113778;28;20051;-57
2021/06/16 10:30:13;;;;;;;4.47;2.35;;;;;;;28.73;38.34;101503.47;5120000;28;20048;-55
2021/06/16 10:32:43;;;;;;;4.82;2.40;;;;;;;28.59;38.03;101493.97;5127353;28;20068;-54
2021/06/16 10:35:11;;;;;;;6.03;1.98;;;;;;;28.66;38.98;101494.00;5131430;27;20071;-57
2021/06/16 10:37:42;;;;;;;5.03;2.30;;;;;;;28.69;38.68;101496.06;5131240;27;20209;-57
2021/06/16 10:40:43;;;;;;;7.00;3.22;;;;;;;28.82;37.43;101497.34;5134549;27;20487;-56
2021/06/16 10:43:28;;;;;;;6.88;2.85;;;;;;;28.80;37.53;101488.31;5132786;27;20039;-55
2021/06/16 10:46:06;;;;;;;5.82;2.75;;;;;;;28.81;37.23;101489.94;5133314;27;20047;-58
2021/06/16 10:48:53;;;;;;;4.45;2.63;;;;;;;28.95;36.75;101483.41;5134707;27;20493;-51
2021/06/16 10:51:33;;;;;;;4.53;1.98;;;;;;;29.02;37.17;101487.06;5134431;27;20059;-56
2021/06/16 10:54:15;;;;;;;4.88;2.40;;;;;;;29.02;37.89;101487.06;5133500;27;20096;-53
2021/06/16 10:56:45;;;;;;;4.68;2.42;;;;;;;29.11;38.04;101483.81;5134789;27;20045;-55
2021/06/16 10:59:14;;;;;;;5.55;3.00;;;;;;;29.16;37.34;101491.19;5134816;27;20050;-57
2021/06/16 11:01:46;;;;;;;5.13;2.20;;;;;;;29.30;37.53;101491.19;5134140;27;20459;-58
2021/06/16 11:04:28;;;;;;;6.90;2.60;;;;;;;29.58;36.84;101487.44;5134784;27;20126;-57
2021/06/16 11:06:56;;;;;;;5.65;2.67;;;;;;;29.61;36.88;101484.56;5134702;27;20092;-55
2021/06/16 11:09:51;;;;;;;4.65;2.28;;;;;;;29.13;36.12;101487.91;5134096;27;20547;-52
2021/06/16 11:12:29;;;;;;;5.90;2.40;;;;;;;28.96;37.42;101479.28;5134348;27;20047;-55
2021/06/16 11:15:00;;;;;;;4.30;2.40;;;;;;;28.97;37.80;101469.44;5133999;27;20062;-56
2021/06/16 11:17:47;;;;;;;3.83;2.15;;;;;;;29.01;37.22;101476.00;5134629;27;20047;-54
2021/06/16 11:20:22;;;;;;;6.00;2.72;;;;;;;29.02;36.93;101472.72;5134456;27;20402;-54
2021/06/16 11:22:52;;;;;;;4.35;2.47;;;;;;;29.12;36.78;101471.91;5133283;27;20051;-55
2021/06/16 11:25:39;;;;;;;5.15;2.70;;;;;;;29.24;36.80;101473.50;5134548;27;20043;-58
2021/06/16 11:28:09;;;;;;;5.63;2.97;;;;;;;29.26;36.99;101471.03;5124268;27;20047;-58
2021/06/16 11:30:42;;;;;;;5.60;2.63;;;;;;;29.33;37.65;101464.47;5134437;27;20047;-55
2021/06/16 11:33:34;;;;;;;4.88;2.38;;;;;;;29.42;35.61;101462.84;5133906;27;20050;-53
2021/06/16 11:36:06;;;;;;;5.70;2.28;;;;;;;29.52;37.50;101460.34;5133687;27;20108;-53
2021/06/16 11:38:36;;;;;;;5.35;2.70;;;;;;;29.45;36.36;101452.56;5134030;27;20107;-58
2021/06/16 11:41:16;;;;;;;4.65;2.85;;;;;;;29.27;35.97;101451.75;5134005;27;20063;-56